Time;durP1;ratioP1;P1;durP2;ratioP2;P2;SDS_P1;SDS_P2;PMS_P1;PMS_P2;Temp;Humidity;BMP_temperature;BMP_pressure;BME280_temperature;BME280_humidity;BME280_pressure;Samples;Min_cycle;Max_cycle;Signal;HPM_P1;HPM_P2
2022/07/13 00:00:17;;;;;;;;;;;;;;;22.20;46.58;101104.59;7406883;19;1850;-55
2022/07/13 00:02:46;;;;;;;;;;;;;;;22.27;46.66;101117.50;7408089;19;1300;-56
2022/07/13 00:05:14;;;;;;;;;;;;;;;22.31;46.15;101102.72;7407169;19;1597;-55
2022/07/13 00:07:42;;;;;;;;;;;;;;;22.38;45.99;101118.16;7406771;19;1655;-56
2022/07/13 00:10:11;;;;;;;;;;;;;;;22.38;45.95;101106.50;7405160;19;1527;-56
2022/07/13 00:12:42;;;;;;;;;;;;;;;22.45;45.84;101110.31;7405759;19;1557;-56
2022/07/13 00:15:11;;;;;;;;;;;;;;;22.48;46.15;101122.63;7406232;19;1612;-55
2022/07/13 00:17:40;;;;;;;;;;;;;;;22.40;46.26;101099.09;7407592;19;1036;-56
2022/07/13 00:20:09;;;;;;;;;;;;;;;22.34;46.28;101092.50;7405992;19;1864;-55
2022/07/13 00:22:39;;;;;;;;;;;;;;;22.30;46.63;101109.09;7406222;19;1743;-56
2022/07/13 00:25:08;;;;;;;;;;;;;;;22.22;46.35;101107.09;7404640;19;1572;-55
2022/07/13 00:27:37;;;;;;;;;;;;;;;22.12;46.47;101112.53;7406154;19;1565;-55
2022/07/13 00:30:08;;;;;;;;;;;;;;;22.17;46.46;101099.47;7406884;19;1514;-56
2022/07/13 00:32:37;;;;;;;;;;;;;;;22.16;46.55;101119.34;7406765;19;1629;-55
2022/07/13 00:35:06;;;;;;;;;;;;;;;22.28;46.28;101121.88;7405865;19;1731;-55
2022/07/13 00:37:34;;;;;;;;;;;;;;;22.28;46.60;101132.63;7406425;19;1278;-55
2022/07/13 00:40:03;;;;;;;;;;;;;;;22.25;46.38;101101.47;7404016;19;1699;-55
2022/07/13 00:42:31;;;;;;;;;;;;;;;22.26;46.50;101118.47;7404257;19;1323;-56
2022/07/13 00:44:59;;;;;;;;;;;;;;;22.28;46.25;101119.16;7406658;19;1048;-55
2022/07/13 00:47:33;;;;;;;;;;;;;;;22.27;46.51;101128.25;7404369;19;1600;-56
2022/07/13 00:50:02;;;;;;;;;;;;;;;22.26;46.40;101113.09;7404971;19;1680;-55
2022/07/13 00:52:31;;;;;;;;;;;;;;;22.30;46.49;101119.88;7404610;19;2096;-55
2022/07/13 00:54:59;;;;;;;;;;;;;;;22.22;46.94;101129.53;7406034;19;1521;-55
2022/07/13 00:57:29;;;;;;;;;;;;;;;22.25;46.66;101106.84;7404834;19;1520;-55
2022/07/13 00:59:57;;;;;;;;;;;;;;;22.19;46.76;101131.66;7405637;19;1517;-56
2022/07/13 01:02:26;;;;;;;;;;;;;;;22.30;46.57;101141.41;7402900;19;1852;-55
2022/07/13 01:04:57;;;;;;;;;;;;;;;22.19;46.57;101121.72;7405396;19;1313;-56
2022/07/13 01:07:25;;;;;;;;;;;;;;;22.25;46.75;101128.41;7404339;19;1439;-55
2022/07/13 01:09:54;;;;;;;;;;;;;;;22.21;46.70;101122.44;7402511;19;1476;-56
2022/07/13 01:12:22;;;;;;;;;;;;;;;22.21;46.68;101108.97;7404359;19;1461;-55
2022/07/13 01:14:51;;;;;;;;;;;;;;;22.21;46.72;101122.44;7405526;19;1754;-56
2022/07/13 01:17:19;;;;;;;;;;;;;;;22.29;46.87;101128.97;7404917;19;1676;-55
2022/07/13 01:19:48;;;;;;;;;;;;;;;22.18;46.86;101117.34;7403433;19;1648;-55
2022/07/13 01:22:22;;;;;;;;;;;;;;;22.22;47.05;101107.09;7402788;19;1853;-55
2022/07/13 01:24:54;;;;;;;;;;;;;;;22.18;46.73;101120.03;7404351;19;1372;-56
2022/07/13 01:27:22;;;;;;;;;;;;;;;22.20;46.70;101120.75;7404348;19;1436;-55
2022/07/13 01:29:51;;;;;;;;;;;;;;;22.17;46.91;101123.72;7404471;19;1670;-56
2022/07/13 01:32:19;;;;;;;;;;;;;;;22.15;46.88;101101.47;7402457;19;1751;-55
2022/07/13 01:34:47;;;;;;;;;;;;;;;22.14;46.97;101124.00;7404585;19;1628;-56
2022/07/13 01:37:16;;;;;;;;;;;;;;;22.10;46.84;101114.53;7404427;19;1584;-55
2022/07/13 01:39:44;;;;;;;;;;;;;;;21.94;46.98;101122.38;7404756;19;1558;-56
2022/07/13 01:42:15;;;;;;;;;;;;;;;21.96;46.85;101142.78;7402976;19;1864;-56
2022/07/13 01:44:44;;;;;;;;;;;;;;;21.84;47.07;101134.03;7404055;19;1874;-56
2022/07/13 01:47:12;;;;;;;;;;;;;;;21.89;46.97;101140.84;7404822;19;1601;-56
2022/07/13 01:49:40;;;;;;;;;;;;;;;21.92;46.93;101144.06;7403016;19;1515;-55
2022/07/13 01:52:09;;;;;;;;;;;;;;;22.00;46.75;101146.91;7405048;19;1323;-54
2022/07/13 01:54:37;;;;;;;;;;;;;;;22.06;46.72;101161.59;7411476;19;1525;-56
2022/07/13 01:57:06;;;;;;;;;;;;;;;22.01;46.77;101166.59;7407887;19;1651;-56
2022/07/13 01:59:36;;;;;;;;;;;;;;;22.08;46.62;101156.06;7409519;19;1376;-56
2022/07/13 02:02:05;;;;;;;;;;;;;;;22.08;46.97;101154.22;7400248;19;1874;-55
2022/07/13 02:04:33;;;;;;;;;;;;;;;21.98;47.09;101156.09;7407758;19;1767;-56
2022/07/13 02:07:01;;;;;;;;;;;;;;;22.02;47.08;101162.88;7409640;19;1233;-55
2022/07/13 02:09:30;;;;;;;;;;;;;;;21.92;46.99;101152.13;7410532;19;1541;-56
2022/07/13 02:11:58;;;;;;;;;;;;;;;21.97;46.93;101147.19;7408693;19;1440;-56
2022/07/13 02:14:27;;;;;;;;;;;;;;;22.00;46.94;101137.94;7409747;19;1486;-55
2022/07/13 02:16:58;;;;;;;;;;;;;;;22.02;47.17;101152.13;7411235;19;1545;-55
2022/07/13 02:19:26;;;;;;;;;;;;;;;22.01;47.09;101147.75;7409361;19;1431;-56
2022/07/13 02:21:54;;;;;;;;;;;;;;;21.98;47.33;101142.63;7408562;19;1846;-55
2022/07/13 02:24:22;;;;;;;;;;;;;;;22.06;47.31;101158.91;7411691;19;1367;-55
2022/07/13 02:26:51;;;;;;;;;;;;;;;22.00;47.07;101154.09;7410132;19;1759;-55
2022/07/13 02:29:19;;;;;;;;;;;;;;;21.90;47.43;101155.97;7409861;19;1601;-55
2022/07/13 02:31:48;;;;;;;;;;;;;;;21.80;47.44;101156.84;7410207;19;1414;-55
2022/07/13 02:34:19;;;;;;;;;;;;;;;21.85;47.39;101165.34;7409846;19;1533;-56
2022/07/13 02:36:47;;;;;;;;;;;;;;;21.95;47.38;101159.94;7409491;19;1574;-57
2022/07/13 02:39:16;;;;;;;;;;;;;;;21.91;47.42;101147.75;7409935;19;1636;-56
2022/07/13 02:41:44;;;;;;;;;;;;;;;21.96;47.70;101156.22;7408676;19;1856;-55
2022/07/13 02:44:12;;;;;;;;;;;;;;;22.00;47.63;101162.19;7407569;19;1540;-56
2022/07/13 02:46:41;;;;;;;;;;;;;;;21.98;47.38;101145.31;7407521;19;1585;-56
2022/07/13 02:49:09;;;;;;;;;;;;;;;21.95;47.57;101142.94;7409087;19;1397;-56
2022/07/13 02:51:40;;;;;;;;;;;;;;;21.95;47.42;101137.56;7408843;19;1325;-55
2022/07/13 02:54:08;;;;;;;;;;;;;;;21.96;47.44;101155.41;7409113;19;1289;-56
2022/07/13 02:56:37;;;;;;;;;;;;;;;21.95;47.77;101153.72;7408632;19;1327;-55
2022/07/13 02:59:05;;;;;;;;;;;;;;;22.00;47.77;101151.41;7407912;19;1426;-56
2022/07/13 03:01:33;;;;;;;;;;;;;;;21.99;47.65;101155.13;7406192;19;1877;-56
2022/07/13 03:04:02;;;;;;;;;;;;;;;22.02;47.73;101141.34;7406103;19;1373;-55
2022/07/13 03:06:31;;;;;;;;;;;;;;;22.00;47.82;101136.13;7408015;19;1363;-56
2022/07/13 03:09:02;;;;;;;;;;;;;;;22.00;47.96;101143.34;7409405;19;1391;-56
2022/07/13 03:11:30;;;;;;;;;;;;;;;21.99;48.23;101152.44;7407755;19;1427;-55
2022/07/13 03:14:01;;;;;;;;;;;;;;;21.96;47.77;101150.84;7407310;19;1427;-54
2022/07/13 03:16:30;;;;;;;;;;;;;;;21.98;48.21;101143.47;7406054;19;1443;-58
2022/07/13 03:18:58;;;;;;;;;;;;;;;22.04;48.04;101152.81;7407028;19;1219;-58
2022/07/13 03:21:28;;;;;;;;;;;;;;;22.01;48.02;101143.19;7405927;19;1868;-58
2022/07/13 03:23:57;;;;;;;;;;;;;;;22.00;48.03;101135.25;7405444;19;1593;-57
2022/07/13 03:26:28;;;;;;;;;;;;;;;22.02;48.27;101150.28;7404560;19;1375;-57
2022/07/13 03:28:57;;;;;;;;;;;;;;;22.16;48.46;101148.97;7406870;19;1351;-57
2022/07/13 03:31:26;;;;;;;;;;;;;;;22.05;48.09;101154.53;7406251;19;1197;-57
2022/07/13 03:33:54;;;;;;;;;;;;;;;21.95;48.04;101148.31;7402757;19;1807;-58
2022/07/13 03:36:22;;;;;;;;;;;;;;;21.95;48.48;101151.03;7401125;19;1469;-54
2022/07/13 03:38:51;;;;;;;;;;;;;;;22.00;48.30;101156.81;7404273;19;1287;-55
2022/07/13 03:41:19;;;;;;;;;;;;;;;22.01;48.39;101147.75;7404387;19;1869;-55
2022/07/13 03:43:50;;;;;;;;;;;;;;;21.73;48.69;101144.97;7406067;19;1542;-55
2022/07/13 03:46:19;;;;;;;;;;;;;;;21.81;48.38;101153.16;7405487;19;1529;-55
2022/07/13 03:48:47;;;;;;;;;;;;;;;21.84;48.75;101142.13;7405362;19;1353;-56
2022/07/13 03:51:15;;;;;;;;;;;;;;;21.95;48.22;101151.03;7405291;19;1185;-56
2022/07/13 03:53:44;;;;;;;;;;;;;;;21.98;48.29;101142.63;7404086;19;1522;-55
2022/07/13 03:56:12;;;;;;;;;;;;;;;22.05;48.25;101143.75;7399898;19;1388;-55
2022/07/13 03:58:41;;;;;;;;;;;;;;;22.10;48.12;101146.84;7404366;19;1545;-55
2022/07/13 04:01:11;;;;;;;;;;;;;;;22.01;48.23;101136.97;7401502;19;1557;-56
2022/07/13 04:03:40;;;;;;;;;;;;;;;21.88;48.37;101139.13;7407847;19;1489;-55
2022/07/13 04:06:08;;;;;;;;;;;;;;;21.90;48.28;101151.44;7401042;19;1538;-56
2022/07/13 04:08:36;;;;;;;;;;;;;;;21.99;48.16;101145.19;7402499;19;1764;-55
2022/07/13 04:11:05;;;;;;;;;;;;;;;22.08;47.59;101148.00;7401563;19;1616;-55
2022/07/13 04:13:33;;;;;;;;;;;;;;;22.10;47.60;101148.69;7406714;19;1660;-55
2022/07/13 04:16:02;;;;;;;;;;;;;;;22.19;47.49;101151.34;7406570;19;1502;-56
2022/07/13 04:18:33;;;;;;;;;;;;;;;22.18;47.65;101149.69;7405727;19;1603;-55
2022/07/13 04:21:02;;;;;;;;;;;;;;;22.24;47.56;101153.63;7402655;19;1606;-56
2022/07/13 04:23:31;;;;;;;;;;;;;;;22.23;47.80;101152.75;7403746;19;1849;-56
2022/07/13 04:25:59;;;;;;;;;;;;;;;22.27;47.71;101157.91;7404681;19;1534;-56
2022/07/13 04:28:28;;;;;;;;;;;;;;;22.29;47.70;101147.81;7403332;19;1426;-55
2022/07/13 04:30:56;;;;;;;;;;;;;;;22.28;47.60;101148.81;7405194;19;1827;-55
2022/07/13 04:33:24;;;;;;;;;;;;;;;22.31;47.32;101133.19;7406283;19;1533;-56
2022/07/13 04:35:55;;;;;;;;;;;;;;;22.36;47.54;101147.09;7403848;19;1296;-56
2022/07/13 04:38:23;;;;;;;;;;;;;;;22.40;47.44;101153.00;7404213;19;1427;-56
2022/07/13 04:40:52;;;;;;;;;;;;;;;22.38;47.22;101153.19;7405220;19;1765;-56
2022/07/13 04:43:20;;;;;;;;;;;;;;;22.36;47.33;101140.81;7402030;19;1859;-56
2022/07/13 04:45:49;;;;;;;;;;;;;;;22.34;47.63;101132.91;7405326;19;1502;-56
2022/07/13 04:48:17;;;;;;;;;;;;;;;22.49;47.35;101125.16;7404838;19;1394;-55
2022/07/13 04:50:46;;;;;;;;;;;;;;;22.55;47.25;101140.75;7403406;19;1440;-56
2022/07/13 04:53:17;;;;;;;;;;;;;;;22.60;47.43;101142.97;7405380;19;1561;-56
2022/07/13 04:55:45;;;;;;;;;;;;;;;22.57;47.43;101144.13;7403805;19;1589;-55
2022/07/13 04:58:14;;;;;;;;;;;;;;;22.68;47.54;101136.84;7404756;19;1353;-55
2022/07/13 05:00:42;;;;;;;;;;;;;;;22.73;47.44;101142.63;7404155;19;1336;-55
2022/07/13 05:03:10;;;;;;;;;;;;;;;22.80;47.29;101151.78;7400519;19;1849;-56
2022/07/13 05:05:39;;;;;;;;;;;;;;;22.86;47.56;101140.44;7404672;19;1162;-56
2022/07/13 05:08:08;;;;;;;;;;;;;;;22.59;47.78;101141.28;7403719;19;1376;-56
2022/07/13 05:10:39;;;;;;;;;;;;;;;22.51;48.04;101143.91;7399858;19;1446;-56
2022/07/13 05:13:08;;;;;;;;;;;;;;;22.84;47.38;101155.91;7400316;19;1467;-57
2022/07/13 05:15:36;;;;;;;;;;;;;;;23.08;47.34;101141.00;7401836;19;1680;-56
2022/07/13 05:18:04;;;;;;;;;;;;;;;23.20;47.31;101129.84;7403419;19;1329;-56
2022/07/13 05:20:32;;;;;;;;;;;;;;;23.26;46.97;101138.31;7402076;19;1527;-55
2022/07/13 05:23:01;;;;;;;;;;;;;;;23.33;47.26;101150.19;7402591;19;1860;-55
2022/07/13 05:25:29;;;;;;;;;;;;;;;23.37;47.09;101152.41;7401091;19;1454;-55
2022/07/13 05:28:00;;;;;;;;;;;;;;;23.42;47.23;101150.09;7402365;19;1574;-58
2022/07/13 05:30:29;;;;;;;;;;;;;;;23.45;47.32;101150.78;7402143;19;1780;-56
2022/07/13 05:32:58;;;;;;;;;;;;;;;23.43;48.01;101151.78;7402277;19;1216;-56
2022/07/13 05:35:26;;;;;;;;;;;;;;;23.42;47.91;101142.00;7403393;19;1343;-56
2022/07/13 05:37:55;;;;;;;;;;;;;;;23.47;48.17;101146.09;7403218;19;1674;-56
2022/07/13 05:40:23;;;;;;;;;;;;;;;23.27;48.55;101162.44;7402867;19;1550;-56
2022/07/13 05:42:52;;;;;;;;;;;;;;;23.26;48.21;101155.38;7399304;19;1850;-56
2022/07/13 05:45:25;;;;;;;;;;;;;;;23.37;49.28;101162.38;7404528;19;1320;-56
2022/07/13 05:47:54;;;;;;;;;;;;;;;23.37;50.37;101152.41;7402561;19;1780;-56
2022/07/13 05:50:22;;;;;;;;;;;;;;;23.41;51.87;101159.19;7403054;19;1557;-56
2022/07/13 05:52:50;;;;;;;;;;;;;;;23.46;52.00;101156.06;7401459;19;1562;-55
2022/07/13 05:55:19;;;;;;;;;;;;;;;23.50;52.48;101151.19;7402463;19;1582;-55
2022/07/13 05:57:47;;;;;;;;;;;;;;;23.48;52.30;101148.63;7403022;19;1605;-57
2022/07/13 06:00:16;;;;;;;;;;;;;;;23.49;52.76;101146.78;7403151;19;1458;-58
2022/07/13 06:02:47;;;;;;;;;;;;;;;23.52;52.51;101146.47;7402398;19;1861;-57
2022/07/13 06:05:15;;;;;;;;;;;;;;;23.51;53.03;101139.38;7403700;19;1356;-56
2022/07/13 06:07:45;;;;;;;;;;;;;;;23.49;54.18;101138.69;7401464;19;1652;-67
2022/07/13 06:10:13;;;;;;;;;;;;;;;23.48;53.67;101137.00;7402113;19;1347;-54
2022/07/13 06:12:42;;;;;;;;;;;;;;;23.47;52.73;101140.69;7400215;19;1571;-66
2022/07/13 06:15:11;;;;;;;;;;;;;;;23.47;52.98;101136.13;7403305;19;1719;-55
2022/07/13 06:17:39;;;;;;;;;;;;;;;23.49;52.86;101139.53;7403755;19;1649;-64
2022/07/13 06:20:11;;;;;;;;;;;;;;;23.50;52.75;101140.41;7403733;19;1760;-70
2022/07/13 06:22:39;;;;;;;;;;;;;;;23.46;52.66;101141.69;7402389;19;1844;-54
2022/07/13 06:25:08;;;;;;;;;;;;;;;23.49;52.46;101138.69;7401226;19;1310;-55
2022/07/13 06:27:36;;;;;;;;;;;;;;;23.48;52.32;101134.31;7403241;19;1291;-54
2022/07/13 06:30:05;;;;;;;;;;;;;;;23.49;52.27;101135.97;7402700;19;1688;-65
2022/07/13 06:32:33;;;;;;;;;;;;;;;23.51;52.64;101132.13;7402229;19;1295;-55
2022/07/13 06:35:02;;;;;;;;;;;;;;;23.47;52.06;101148.78;7401298;19;1491;-56
2022/07/13 06:37:33;;;;;;;;;;;;;;;23.45;52.75;101121.09;7402306;19;1676;-56
2022/07/13 06:40:01;;;;;;;;;;;;;;;23.48;52.00;101134.31;7406930;19;1648;-56
2022/07/13 06:42:30;;;;;;;;;;;;;;;23.47;51.70;101119.94;7407109;19;1859;-56
2022/07/13 06:44:58;;;;;;;;;;;;;;;23.47;52.08;101122.63;7410523;19;1526;-56
2022/07/13 06:47:26;;;;;;;;;;;;;;;23.46;51.86;101130.88;7409964;19;1517;-56
2022/07/13 06:49:55;;;;;;;;;;;;;;;23.46;51.93;101118.25;7409363;19;1681;-56
2022/07/13 06:52:23;;;;;;;;;;;;;;;23.43;52.07;101119.41;7408028;19;1817;-54
2022/07/13 06:54:54;;;;;;;;;;;;;;;23.45;52.09;101111.16;7407711;19;1525;-54
2022/07/13 06:57:22;;;;;;;;;;;;;;;23.46;52.21;101123.66;7408929;19;1629;-55
2022/07/13 06:59:51;;;;;;;;;;;;;;;23.50;52.64;101124.19;7405000;19;1580;-55
2022/07/13 07:02:19;;;;;;;;;;;;;;;23.43;52.47;101118.56;7405168;19;1853;-55
2022/07/13 07:04:47;;;;;;;;;;;;;;;23.42;52.11;101122.28;7408675;19;1676;-56
2022/07/13 07:07:16;;;;;;;;;;;;;;;23.39;52.04;101107.22;7409828;19;1522;-55
2022/07/13 07:09:44;;;;;;;;;;;;;;;23.42;52.17;101116.88;7409652;19;1554;-55
2022/07/13 07:12:15;;;;;;;;;;;;;;;23.43;52.42;101126.66;7407188;19;1624;-55
2022/07/13 07:14:43;;;;;;;;;;;;;;;23.40;52.30;101125.13;7408653;19;1432;-56
2022/07/13 07:17:12;;;;;;;;;;;;;;;23.42;52.57;101124.97;7407081;19;1605;-55
2022/07/13 07:19:40;;;;;;;;;;;;;;;23.43;52.66;101123.97;7406759;19;1633;-55
2022/07/13 07:22:08;;;;;;;;;;;;;;;23.45;52.41;101129.19;7407804;19;1483;-55
2022/07/13 07:24:37;;;;;;;;;;;;;;;23.39;52.52;101128.81;7406697;19;1845;-55
2022/07/13 07:27:07;;;;;;;;;;;;;;;23.39;52.52;101139.59;7407575;19;1316;-54
2022/07/13 07:29:38;;;;;;;;;;;;;;;23.42;52.63;101147.41;7406284;19;1732;-55
2022/07/13 07:32:07;;;;;;;;;;;;;;;23.44;52.52;101155.34;7404344;19;1306;-56
2022/07/13 07:34:36;;;;;;;;;;;;;;;23.38;52.63;101146.03;7407176;19;1423;-56
2022/07/13 07:37:05;;;;;;;;;;;;;;;23.41;52.60;101159.19;7408109;19;1340;-55
2022/07/13 07:39:33;;;;;;;;;;;;;;;23.40;52.78;101149.41;7403444;19;1329;-55
2022/07/13 07:42:02;;;;;;;;;;;;;;;23.41;52.68;101153.78;7407228;19;1384;-56
2022/07/13 07:44:30;;;;;;;;;;;;;;;23.38;52.81;101147.88;7403490;19;1842;-56
2022/07/13 07:47:01;;;;;;;;;;;;;;;23.39;52.75;101149.56;7407555;19;1533;-55
2022/07/13 07:49:30;;;;;;;;;;;;;;;23.36;52.65;101150.72;7405075;19;1325;-55
2022/07/13 07:51:58;;;;;;;;;;;;;;;23.38;53.04;101146.03;7407140;19;1612;-55
2022/07/13 07:54:27;;;;;;;;;;;;;;;23.36;52.55;101147.19;7407355;19;1620;-55
2022/07/13 07:56:55;;;;;;;;;;;;;;;23.36;52.61;101144.50;7407290;19;1638;-56
2022/07/13 07:59:24;;;;;;;;;;;;;;;23.33;53.13;101145.63;7405092;19;1474;-55
2022/07/13 08:01:52;;;;;;;;;;;;;;;23.35;52.94;101143.63;7405714;19;1612;-55
2022/07/13 08:04:23;;;;;;;;;;;;;;;23.35;52.78;101142.78;7404226;19;1845;-56
2022/07/13 08:06:52;;;;;;;;;;;;;;;23.32;53.02;101138.56;7404370;19;1572;-55
2022/07/13 08:09:20;;;;;;;;;;;;;;;23.36;52.81;101147.19;7407306;19;1526;-56
2022/07/13 08:11:48;;;;;;;;;;;;;;;23.35;52.72;101134.69;7405588;19;1612;-55
2022/07/13 08:14:17;;;;;;;;;;;;;;;23.37;52.87;101135.38;7406815;19;1712;-55
2022/07/13 08:16:45;;;;;;;;;;;;;;;23.33;52.94;101137.53;7405672;19;1676;-56
2022/07/13 08:19:13;;;;;;;;;;;;;;;23.33;53.07;101128.59;7406043;19;1533;-56
2022/07/13 08:21:44;;;;;;;;;;;;;;;23.34;52.69;101124.91;7406214;19;1519;-56
2022/07/13 08:24:13;;;;;;;;;;;;;;;23.35;52.85;101119.34;7404333;19;1869;-55
2022/07/13 08:26:41;;;;;;;;;;;;;;;23.37;53.33;101136.22;7404985;19;1448;-56
2022/07/13 08:29:09;;;;;;;;;;;;;;;23.35;53.08;101107.69;7405047;19;1541;-56
2022/07/13 08:31:38;;;;;;;;;;;;;;;23.37;53.07;101116.50;7406149;19;1352;-55
2022/07/13 08:39:30;;;;;;;;;;;;;;;23.37;52.94;101109.22;7405556;19;1154;-56
2022/07/13 08:41:59;;;;;;;;;;;;;;;23.36;52.97;101112.94;7405332;19;1352;-56
2022/07/13 08:44:28;;;;;;;;;;;;;;;23.40;53.15;101110.78;7404645;19;1855;-55
2022/07/13 08:46:56;;;;;;;;;;;;;;;23.33;52.71;101099.75;7404774;19;1352;-55
2022/07/13 08:49:25;;;;;;;;;;;;;;;23.33;52.76;101090.81;7404347;19;1361;-55
2022/07/13 08:51:57;;;;;;;;;;;;;;;23.35;53.35;101073.47;7404629;19;1272;-56
2022/07/13 08:54:26;;;;;;;;;;;;;;;23.40;53.12;101098.13;7405182;19;1295;-56
2022/07/13 08:56:54;;;;;;;;;;;;;;;23.38;52.78;101094.75;7406272;19;1562;-56
2022/07/13 08:59:22;;;;;;;;;;;;;;;23.46;52.71;101088.56;7404207;19;1612;-56
2022/07/13 09:01:51;;;;;;;;;;;;;;;23.43;53.20;101097.81;7400622;19;1375;-56
2022/07/13 09:04:20;;;;;;;;;;;;;;;23.42;53.23;101085.34;7402863;19;1846;-55
2022/07/13 09:06:49;;;;;;;;;;;;;;;23.42;53.21;101079.94;7404910;19;1411;-54
2022/07/13 09:09:31;;;;;;;;;;;;;;;23.46;53.39;101066.09;7405886;19;1715;-56
2022/07/13 09:12:11;;;;;;;;;;;;;;;23.48;53.85;101074.94;7404124;19;1566;-55
2022/07/13 09:14:40;;;;;;;;;;;;;;;23.48;53.87;101067.66;7402426;19;1570;-56
2022/07/13 09:17:08;;;;;;;;;;;;;;;23.56;54.75;101065.03;7403999;19;1533;-56
2022/07/13 09:19:39;;;;;;;;;;;;;;;23.52;54.61;101058.25;7402763;19;1470;-54
2022/07/13 09:22:13;;;;;;;;;;;;;;;23.54;54.92;101066.19;7403213;19;1304;-54
2022/07/13 09:24:48;;;;;;;;;;;;;;;23.45;54.59;101057.16;7403383;19;1858;-55
2022/07/13 09:27:17;;;;;;;;;;;;;;;23.42;54.34;101061.03;7404239;19;1284;-55
2022/07/13 09:29:45;;;;;;;;;;;;;;;23.42;54.67;101041.31;7404687;19;1660;-55
2022/07/13 09:32:14;;;;;;;;;;;;;;;23.41;54.31;101043.13;7403568;19;1470;-55
2022/07/13 09:34:46;;;;;;;;;;;;;;;23.39;54.67;101037.06;7403464;19;1409;-56
2022/07/13 09:37:16;;;;;;;;;;;;;;;23.39;54.58;101047.84;7402904;19;1344;-54
2022/07/13 09:39:59;;;;;;;;;;;;;;;23.42;54.81;101052.09;7404833;19;1529;-54
2022/07/13 09:42:31;;;;;;;;;;;;;;;23.45;54.55;101048.22;7404261;19;1351;-59
2022/07/13 09:47:44;;;;;;;;;;;;;;;23.47;54.13;101040.81;7404474;19;1343;-59
2022/07/13 09:50:13;;;;;;;;;;;;;;;23.46;53.99;101033.72;7404180;19;1608;-59
2022/07/13 09:52:43;;;;;;;;;;;;;;;23.46;53.72;101048.09;7402724;19;1487;-55
2022/07/13 09:55:13;;;;;;;;;;;;;;;23.47;53.84;101038.13;7401833;19;1465;-60
2022/07/13 09:57:48;;;;;;;;;;;;;;;23.49;53.97;101041.50;7403764;19;1339;-59
2022/07/13 10:00:17;;;;;;;;;;;;;;;23.47;53.62;101032.72;7403014;19;1636;-54
2022/07/13 10:02:47;;;;;;;;;;;;;;;23.47;53.84;101038.97;7403792;19;1554;-55
2022/07/13 10:05:16;;;;;;;;;;;;;;;23.49;53.45;101045.06;7402613;19;1856;-58
2022/07/13 10:07:44;;;;;;;;;;;;;;;23.47;53.80;101038.13;7403020;19;1456;-59
2022/07/13 10:10:14;;;;;;;;;;;;;;;23.47;53.89;101048.91;7402239;19;1295;-59
2022/07/13 10:12:45;;;;;;;;;;;;;;;23.49;53.90;101042.34;7402331;19;1414;-54
2022/07/13 10:15:15;;;;;;;;;;;;;;;23.48;53.92;101034.44;7410039;19;1299;-54
2022/07/13 10:17:49;;;;;;;;;;;;;;;23.47;53.93;101032.72;7409673;19;1546;-55
2022/07/13 10:20:18;;;;;;;;;;;;;;;23.44;53.76;101023.09;7407637;19;1359;-51
2022/07/13 10:22:48;;;;;;;;;;;;;;;23.49;53.85;101036.13;7410567;19;1716;-49
2022/07/13 10:25:16;;;;;;;;;;;;;;;23.50;53.58;101022.47;7407764;19;1861;-51
2022/07/13 10:27:47;;;;;;;;;;;;;;;23.52;53.77;101019.63;7410467;19;1640;-52
2022/07/13 10:30:25;;;;;;;;;;;;;;;23.50;53.72;101021.63;7409466;19;1590;-54
2022/07/13 10:32:53;;;;;;;;;;;;;;;23.44;53.81;101006.91;7410085;19;1546;-53
2022/07/13 10:35:23;;;;;;;;;;;;;;;23.47;53.34;100989.53;7411050;19;1582;-53
2022/07/13 10:38:07;;;;;;;;;;;;;;;23.50;53.26;101000.03;7410764;19;1696;-53
2022/07/13 10:40:37;;;;;;;;;;;;;;;23.50;53.28;100994.63;7409101;19;1546;-52
2022/07/13 10:43:18;;;;;;;;;;;;;;;23.48;53.17;100992.09;7408560;19;1657;-53
2022/07/13 10:45:48;;;;;;;;;;;;;;;23.50;53.65;100991.94;7406914;19;1841;-52
2022/07/13 10:48:34;;;;;;;;;;;;;;;23.50;53.79;100987.38;7408595;19;1415;-53
2022/07/13 10:51:03;;;;;;;;;;;;;;;23.47;53.32;101003.88;7407935;19;1695;-53
2022/07/13 10:53:50;;;;;;;;;;;;;;;23.46;53.82;100998.63;7408616;19;1265;-53
2022/07/13 10:56:19;;;;;;;;;;;;;;;23.47;53.38;100992.25;7408991;19;1736;-53
2022/07/13 10:58:50;;;;;;;;;;;;;;;23.54;52.89;100990.59;7407630;19;1612;-53
2022/07/13 11:01:35;;;;;;;;;;;;;;;23.51;52.85;100986.34;7407950;19;1600;-58
2022/07/13 11:04:04;;;;;;;;;;;;;;;23.40;53.25;100974.00;7408941;19;1851;-54
2022/07/13 11:06:32;;;;;;;;;;;;;;;23.44;53.65;100985.31;7408141;19;1696;-58
2022/07/13 11:09:11;;;;;;;;;;;;;;;23.45;53.48;100969.97;7408220;19;1675;-58
2022/07/13 11:11:46;;;;;;;;;;;;;;;23.50;53.75;100983.84;7406820;19;1574;-58
2022/07/13 11:14:29;;;;;;;;;;;;;;;23.48;53.30;100975.06;7403063;19;1263;-52
2022/07/13 11:17:12;;;;;;;;;;;;;;;23.46;53.56;100960.84;7403879;19;1225;-56
2022/07/13 11:19:56;;;;;;;;;;;;;;;23.49;53.47;100971.34;7407357;19;1849;-56
2022/07/13 11:22:24;;;;;;;;;;;;;;;23.54;53.59;100990.59;7407159;19;1544;-50
2022/07/13 11:25:14;;;;;;;;;;;;;;;23.47;53.45;100968.78;7404964;19;1855;-50
2022/07/13 11:27:58;;;;;;;;;;;;;;;23.48;53.53;100966.97;7407347;19;1332;-55
2022/07/13 11:30:30;;;;;;;;;;;;;;;23.50;53.26;100967.66;7407357;19;1561;-53
2022/07/13 11:33:01;;;;;;;;;;;;;;;23.42;53.36;100966.59;7408148;19;1608;-53
2022/07/13 11:35:29;;;;;;;;;;;;;;;23.46;53.38;100968.94;7407717;19;1518;-51
2022/07/13 11:37:58;;;;;;;;;;;;;;;23.40;53.06;100968.59;7409026;19;1522;-57
2022/07/13 11:40:33;;;;;;;;;;;;;;;23.48;52.44;100958.84;7408507;19;1644;-56
2022/07/13 11:43:02;;;;;;;;;;;;;;;23.47;51.99;100970.66;7406552;19;1603;-54
2022/07/13 11:45:32;;;;;;;;;;;;;;;23.46;51.74;100969.81;7404874;19;1838;-57
2022/07/13 11:48:05;;;;;;;;;;;;;;;23.43;51.69;100954.75;7408004;19;1607;-54
2022/07/13 11:50:43;;;;;;;;;;;;;;;23.46;51.85;100941.94;7399249;19;1353;-62
2022/07/13 11:53:21;;;;;;;;;;;;;;;23.46;51.85;100945.53;7401841;19;1343;-58
2022/07/13 11:55:50;;;;;;;;;;;;;;;23.51;51.81;100937.75;7399735;19;1550;-55
2022/07/13 11:58:25;;;;;;;;;;;;;;;23.47;52.12;100949.06;7400450;19;1308;-58
2022/07/13 12:00:53;;;;;;;;;;;;;;;23.48;51.97;100953.47;7404018;19;1522;-54
2022/07/13 12:03:35;;;;;;;;;;;;;;;23.45;51.80;100942.97;7405999;19;1605;-57
2022/07/13 12:06:04;;;;;;;;;;;;;;;23.48;52.07;100948.06;7403046;19;1848;-56
2022/07/13 12:08:33;;;;;;;;;;;;;;;23.51;51.75;100945.03;7404849;19;1523;-55
2022/07/13 12:11:02;;;;;;;;;;;;;;;23.50;51.91;100943.34;7404316;19;1452;-57
2022/07/13 12:13:33;;;;;;;;;;;;;;;23.49;51.63;100933.53;7405432;19;1657;-52
2022/07/13 12:16:01;;;;;;;;;;;;;;;23.53;51.89;100932.22;7405807;19;1558;-51
2022/07/13 12:18:30;;;;;;;;;;;;;;;23.47;52.13;100924.75;7406053;19;1549;-56
2022/07/13 12:21:01;;;;;;;;;;;;;;;23.47;51.91;100909.41;7405873;19;1601;-55
2022/07/13 12:23:31;;;;;;;;;;;;;;;23.47;52.41;100920.22;7406108;19;1604;-56
2022/07/13 12:26:07;;;;;;;;;;;;;;;23.43;52.55;100929.63;7402637;19;1853;-56
2022/07/13 12:28:39;;;;;;;;;;;;;;;23.42;52.67;100911.75;7404919;19;1343;-52
2022/07/13 12:31:08;;;;;;;;;;;;;;;23.51;52.50;100924.28;7404693;19;1859;-56
2022/07/13 12:33:46;;;;;;;;;;;;;;;23.49;52.53;100906.56;7406320;19;1550;-52
2022/07/13 12:36:19;;;;;;;;;;;;;;;23.57;52.30;100925.47;7402813;19;1305;-55
2022/07/13 12:38:55;;;;;;;;;;;;;;;23.50;52.00;100905.56;7406416;19;1621;-52
2022/07/13 12:41:28;;;;;;;;;;;;;;;23.52;52.33;100908.94;7406030;19;1628;-52
2022/07/13 12:43:57;;;;;;;;;;;;;;;23.50;52.43;100901.00;7405731;19;1620;-52
2022/07/13 12:46:26;;;;;;;;;;;;;;;23.48;52.37;100900.31;7403726;19;1848;-49
2022/07/13 12:49:03;;;;;;;;;;;;;;;23.50;52.43;100897.47;7404795;19;1685;-57
2022/07/13 12:51:46;;;;;;;;;;;;;;;23.62;52.41;100928.56;7403852;19;1699;-57
2022/07/13 12:54:17;;;;;;;;;;;;;;;23.53;52.34;100914.16;7406249;19;1764;-58
2022/07/13 12:56:50;;;;;;;;;;;;;;;23.56;52.33;100913.84;7404317;19;1649;-58
2022/07/13 12:59:20;;;;;;;;;;;;;;;23.57;52.40;100911.97;7402753;19;1308;-58
2022/07/13 13:01:49;;;;;;;;;;;;;;;23.53;52.53;100911.47;7402792;19;1380;-56
2022/07/13 13:04:18;;;;;;;;;;;;;;;23.53;51.93;100897.13;7403682;19;1855;-60
2022/07/13 13:06:50;;;;;;;;;;;;;;;23.53;52.02;100895.25;7402374;19;1795;-58
2022/07/13 13:09:22;;;;;;;;;;;;;;;23.56;51.66;100897.66;7404072;19;1697;-59